sensor_id;sensor_type;location;lat;lon;timestamp;P1;durP1;ratioP1;P2;durP2;ratioP2
15970;SDS011;59785;52.582;13.892;2022-10-16T07:42:04;7.53;;;4.65;;
15970;SDS011;59785;52.582;13.892;2022-10-16T07:44:30;5.65;;;3.90;;
15970;SDS011;59785;52.582;13.892;2022-10-16T07:46:57;4.40;;;3.58;;
15970;SDS011;59785;52.582;13.892;2022-10-16T07:49:23;4.00;;;3.53;;
15970;SDS011;59785;52.582;13.892;2022-10-16T07:51:49;4.80;;;3.22;;
15970;SDS011;59785;52.582;13.892;2022-10-16T07:54:15;5.25;;;3.53;;
15970;SDS011;59785;52.582;13.892;2022-10-16T07:56:41;4.90;;;3.90;;
15970;SDS011;59785;52.582;13.892;2022-10-16T07:59:08;3.47;;;3.00;;
15970;SDS011;59785;52.582;13.892;2022-10-16T08:01:35;4.72;;;2.90;;
15970;SDS011;59785;52.582;13.892;2022-10-16T08:04:01;3.83;;;2.60;;
15970;SDS011;59785;52.582;13.892;2022-10-16T08:06:27;4.47;;;3.05;;
15970;SDS011;59785;52.582;13.892;2022-10-16T08:08:54;3.05;;;2.47;;
15970;SDS011;59785;52.582;13.892;2022-10-16T08:11:21;3.63;;;2.47;;
15970;SDS011;59785;52.582;13.892;2022-10-16T08:13:48;4.70;;;2.50;;
15970;SDS011;59785;52.582;13.892;2022-10-16T08:16:14;5.10;;;2.60;;
15970;SDS011;59785;52.582;13.892;2022-10-16T08:18:41;5.18;;;3.65;;
15970;SDS011;59785;52.582;13.892;2022-10-16T08:21:07;3.97;;;2.25;;
15970;SDS011;59785;52.582;13.892;2022-10-16T08:23:46;3.28;;;2.22;;
15970;SDS011;59785;52.582;13.892;2022-10-16T08:26:16;3.75;;;2.20;;
15970;SDS011;59785;52.582;13.892;2022-10-16T08:28:42;3.95;;;2.20;;
15970;SDS011;59785;52.582;13.892;2022-10-16T08:31:10;4.63;;;2.42;;
15970;SDS011;59785;52.582;13.892;2022-10-16T08:33:38;3.38;;;2.53;;
15970;SDS011;59785;52.582;13.892;2022-10-16T08:36:07;2.80;;;2.50;;
15970;SDS011;59785;52.582;13.892;2022-10-16T08:38:33;2.35;;;2.13;;
15970;SDS011;59785;52.582;13.892;2022-10-16T08:41:02;4.63;;;2.40;;
15970;SDS011;59785;52.582;13.892;2022-10-16T08:49:43;3.63;;;2.20;;
15970;SDS011;59785;52.582;13.892;2022-10-16T08:52:21;3.75;;;1.90;;
15970;SDS011;59785;52.582;13.892;2022-10-16T08:54:48;2.30;;;2.10;;
15970;SDS011;59785;52.582;13.892;2022-10-16T08:57:20;2.80;;;2.00;;
15970;SDS011;59785;52.582;13.892;2022-10-16T08:59:49;3.35;;;2.15;;
15970;SDS011;59785;52.582;13.892;2022-10-16T09:02:23;4.30;;;2.33;;
15970;SDS011;59785;52.582;13.892;2022-10-16T09:04:59;3.80;;;1.95;;
15970;SDS011;59785;52.582;13.892;2022-10-16T09:10:42;4.75;;;2.13;;
15970;SDS011;59785;52.582;13.892;2022-10-16T09:16:50;2.40;;;1.98;;
15970;SDS011;59785;52.582;13.892;2022-10-16T09:21:57;2.55;;;1.67;;
15970;SDS011;59785;52.582;13.892;2022-10-16T09:24:27;2.50;;;2.00;;
15970;SDS011;59785;52.582;13.892;2022-10-16T09:26:54;2.00;;;1.80;;
15970;SDS011;59785;52.582;13.892;2022-10-16T09:29:20;1.77;;;1.65;;
15970;SDS011;59785;52.582;13.892;2022-10-16T09:31:47;2.15;;;1.95;;
15970;SDS011;59785;52.582;13.892;2022-10-16T09:34:30;5.63;;;2.17;;
15970;SDS011;59785;52.582;13.892;2022-10-16T09:36:59;2.47;;;1.60;;
15970;SDS011;59785;52.582;13.892;2022-10-16T09:39:30;2.28;;;1.65;;
15970;SDS011;59785;52.582;13.892;2022-10-16T09:41:56;1.65;;;1.55;;
15970;SDS011;59785;52.582;13.892;2022-10-16T13:42:44;1.70;;;1.60;;
15970;SDS011;59785;52.582;13.892;2022-10-16T13:45:23;2.58;;;1.95;;
15970;SDS011;59785;52.582;13.892;2022-10-16T13:48:04;2.17;;;1.88;;
15970;SDS011;59785;52.582;13.892;2022-10-16T13:50:31;2.13;;;2.03;;
15970;SDS011;59785;52.582;13.892;2022-10-16T13:53:04;2.10;;;2.00;;
15970;SDS011;59785;52.582;13.892;2022-10-16T13:55:32;2.50;;;2.30;;
15970;SDS011;59785;52.582;13.892;2022-10-16T13:58:06;1.73;;;1.63;;
15970;SDS011;59785;52.582;13.892;2022-10-16T14:00:34;1.70;;;1.70;;
15970;SDS011;59785;52.582;13.892;2022-10-16T14:03:11;1.75;;;1.63;;
15970;SDS011;59785;52.582;13.892;2022-10-16T14:05:45;2.13;;;1.50;;
15970;SDS011;59785;52.582;13.892;2022-10-16T14:08:14;4.22;;;1.70;;
15970;SDS011;59785;52.582;13.892;2022-10-16T14:10:41;3.50;;;2.08;;
15970;SDS011;59785;52.582;13.892;2022-10-16T14:13:13;1.67;;;1.48;;
15970;SDS011;59785;52.582;13.892;2022-10-16T14:15:49;2.15;;;1.88;;
15970;SDS011;59785;52.582;13.892;2022-10-16T14:18:18;2.40;;;2.30;;
15970;SDS011;59785;52.582;13.892;2022-10-16T14:20:47;1.88;;;1.77;;
15970;SDS011;59785;52.582;13.892;2022-10-16T14:31:02;1.90;;;1.80;;
15970;SDS011;59785;52.582;13.892;2022-10-16T14:33:45;2.07;;;1.97;;
15970;SDS011;59785;52.582;13.892;2022-10-16T14:36:14;2.92;;;1.83;;
15970;SDS011;59785;52.582;13.892;2022-10-16T14:39:06;1.90;;;1.80;;
15970;SDS011;59785;52.582;13.892;2022-10-16T14:41:46;2.88;;;2.67;;
15970;SDS011;59785;52.582;13.892;2022-10-16T14:44:14;3.28;;;1.88;;
15970;SDS011;59785;52.582;13.892;2022-10-16T14:46:44;3.63;;;2.65;;
15970;SDS011;59785;52.582;13.892;2022-10-16T14:51:37;1.88;;;1.75;;
15970;SDS011;59785;52.582;13.892;2022-10-16T14:54:04;1.92;;;1.70;;
15970;SDS011;59785;52.582;13.892;2022-10-16T14:56:32;1.83;;;1.73;;
15970;SDS011;59785;52.582;13.892;2022-10-16T14:59:09;4.68;;;1.95;;
15970;SDS011;59785;52.582;13.892;2022-10-16T15:01:42;1.88;;;1.50;;
15970;SDS011;59785;52.582;13.892;2022-10-16T15:04:10;1.73;;;1.63;;
15970;SDS011;59785;52.582;13.892;2022-10-16T15:06:38;2.15;;;1.77;;
15970;SDS011;59785;52.582;13.892;2022-10-16T15:09:04;1.60;;;1.50;;
15970;SDS011;59785;52.582;13.892;2022-10-16T15:11:30;1.63;;;1.52;;
15970;SDS011;59785;52.582;13.892;2022-10-16T15:13:58;1.90;;;1.80;;
15970;SDS011;59785;52.582;13.892;2022-10-16T15:16:24;1.70;;;1.60;;
15970;SDS011;59785;52.582;13.892;2022-10-16T15:18:50;2.75;;;1.90;;
15970;SDS011;59785;52.582;13.892;2022-10-16T15:21:29;3.22;;;1.60;;
15970;SDS011;59785;52.582;13.892;2022-10-16T15:23:57;2.92;;;2.22;;
15970;SDS011;59785;52.582;13.892;2022-10-16T15:26:25;3.08;;;2.88;;
15970;SDS011;59785;52.582;13.892;2022-10-16T15:28:53;2.15;;;1.98;;
15970;SDS011;59785;52.582;13.892;2022-10-16T15:31:19;1.92;;;1.50;;
15970;SDS011;59785;52.582;13.892;2022-10-16T15:33:49;1.60;;;1.50;;
15970;SDS011;59785;52.582;13.892;2022-10-16T15:36:28;1.45;;;1.35;;
15970;SDS011;59785;52.582;13.892;2022-10-16T15:38:55;2.13;;;1.80;;
15970;SDS011;59785;52.582;13.892;2022-10-16T15:41:21;1.63;;;1.52;;
15970;SDS011;59785;52.582;13.892;2022-10-16T15:43:48;3.70;;;2.47;;
15970;SDS011;59785;52.582;13.892;2022-10-16T15:46:17;2.65;;;2.10;;
15970;SDS011;59785;52.582;13.892;2022-10-16T15:48:45;3.80;;;2.25;;
15970;SDS011;59785;52.582;13.892;2022-10-16T15:51:12;3.88;;;3.58;;
15970;SDS011;59785;52.582;13.892;2022-10-16T15:53:38;2.40;;;2.30;;
15970;SDS011;59785;52.582;13.892;2022-10-16T15:56:05;2.97;;;2.78;;
15970;SDS011;59785;52.582;13.892;2022-10-16T15:58:33;5.05;;;2.70;;
15970;SDS011;59785;52.582;13.892;2022-10-16T16:01:00;15.38;;;2.10;;
15970;SDS011;59785;52.582;13.892;2022-10-16T16:03:28;3.30;;;2.67;;
15970;SDS011;59785;52.582;13.892;2022-10-16T16:05:55;9.05;;;8.38;;
15970;SDS011;59785;52.582;13.892;2022-10-16T16:08:21;8.45;;;4.50;;
15970;SDS011;59785;52.582;13.892;2022-10-16T16:11:00;4.30;;;3.88;;
15970;SDS011;59785;52.582;13.892;2022-10-16T16:13:28;6.97;;;5.32;;
15970;SDS011;59785;52.582;13.892;2022-10-16T16:15:54;4.60;;;3.70;;
15970;SDS011;59785;52.582;13.892;2022-10-16T16:18:21;6.38;;;4.50;;
15970;SDS011;59785;52.582;13.892;2022-10-16T16:20:48;11.20;;;5.72;;
15970;SDS011;59785;52.582;13.892;2022-10-16T16:23:14;5.55;;;4.30;;
15970;SDS011;59785;52.582;13.892;2022-10-16T16:25:41;7.28;;;4.97;;
15970;SDS011;59785;52.582;13.892;2022-10-16T16:28:07;6.95;;;5.32;;
15970;SDS011;59785;52.582;13.892;2022-10-16T16:30:36;8.55;;;6.25;;
15970;SDS011;59785;52.582;13.892;2022-10-16T16:33:02;6.95;;;5.10;;
15970;SDS011;59785;52.582;13.892;2022-10-16T16:35:29;3.53;;;2.97;;
15970;SDS011;59785;52.582;13.892;2022-10-16T16:37:55;4.47;;;3.40;;
15970;SDS011;59785;52.582;13.892;2022-10-16T16:40:21;4.72;;;3.22;;
15970;SDS011;59785;52.582;13.892;2022-10-16T16:42:48;5.30;;;3.65;;
15970;SDS011;59785;52.582;13.892;2022-10-16T16:45:14;4.22;;;3.63;;
15970;SDS011;59785;52.582;13.892;2022-10-16T16:47:41;6.38;;;3.25;;
15970;SDS011;59785;52.582;13.892;2022-10-16T16:50:07;7.07;;;3.90;;
15970;SDS011;59785;52.582;13.892;2022-10-16T16:52:34;5.68;;;3.95;;
15970;SDS011;59785;52.582;13.892;2022-10-16T16:55:00;5.50;;;3.88;;
15970;SDS011;59785;52.582;13.892;2022-10-16T16:57:27;6.47;;;4.20;;
15970;SDS011;59785;52.582;13.892;2022-10-16T16:59:54;6.43;;;4.18;;
15970;SDS011;59785;52.582;13.892;2022-10-16T17:02:20;5.35;;;3.80;;
15970;SDS011;59785;52.582;13.892;2022-10-16T17:04:47;8.73;;;4.88;;
15970;SDS011;59785;52.582;13.892;2022-10-16T17:07:13;9.05;;;5.45;;
15970;SDS011;59785;52.582;13.892;2022-10-16T17:09:39;7.53;;;4.93;;
15970;SDS011;59785;52.582;13.892;2022-10-16T17:12:05;5.85;;;3.90;;
15970;SDS011;59785;52.582;13.892;2022-10-16T17:14:31;6.32;;;4.18;;
15970;SDS011;59785;52.582;13.892;2022-10-16T17:16:57;6.32;;;5.15;;
15970;SDS011;59785;52.582;13.892;2022-10-16T17:19:24;8.40;;;4.60;;
15970;SDS011;59785;52.582;13.892;2022-10-16T17:21:50;10.38;;;6.00;;
15970;SDS011;59785;52.582;13.892;2022-10-16T17:24:17;10.23;;;5.50;;
15970;SDS011;59785;52.582;13.892;2022-10-16T17:26:44;9.68;;;6.82;;
15970;SDS011;59785;52.582;13.892;2022-10-16T17:29:14;7.70;;;5.78;;
15970;SDS011;59785;52.582;13.892;2022-10-16T17:31:43;7.20;;;5.43;;
15970;SDS011;59785;52.582;13.892;2022-10-16T17:34:09;7.80;;;6.20;;
15970;SDS011;59785;52.582;13.892;2022-10-16T17:36:37;11.10;;;6.95;;
15970;SDS011;59785;52.582;13.892;2022-10-16T17:39:09;10.15;;;6.75;;
15970;SDS011;59785;52.582;13.892;2022-10-16T17:41:36;11.15;;;6.90;;
15970;SDS011;59785;52.582;13.892;2022-10-16T17:44:03;7.88;;;6.07;;
15970;SDS011;59785;52.582;13.892;2022-10-16T17:46:30;7.80;;;6.22;;
15970;SDS011;59785;52.582;13.892;2022-10-16T17:49:04;9.38;;;6.53;;
15970;SDS011;59785;52.582;13.892;2022-10-16T17:51:30;8.43;;;6.10;;
15970;SDS011;59785;52.582;13.892;2022-10-16T17:53:58;9.88;;;6.45;;
15970;SDS011;59785;52.582;13.892;2022-10-16T17:56:25;9.10;;;6.78;;
15970;SDS011;59785;52.582;13.892;2022-10-16T17:58:53;14.60;;;7.00;;
15970;SDS011;59785;52.582;13.892;2022-10-16T18:01:21;9.07;;;6.93;;
15970;SDS011;59785;52.582;13.892;2022-10-16T18:03:56;10.07;;;7.60;;
15970;SDS011;59785;52.582;13.892;2022-10-16T18:06:24;12.52;;;8.10;;
15970;SDS011;59785;52.582;13.892;2022-10-16T18:08:51;12.18;;;8.43;;
15970;SDS011;59785;52.582;13.892;2022-10-16T18:11:19;10.70;;;7.85;;
15970;SDS011;59785;52.582;13.892;2022-10-16T18:13:45;11.65;;;8.65;;
15970;SDS011;59785;52.582;13.892;2022-10-16T18:16:13;12.35;;;8.40;;
15970;SDS011;59785;52.582;13.892;2022-10-16T18:18:41;10.93;;;7.80;;
15970;SDS011;59785;52.582;13.892;2022-10-16T18:21:10;10.75;;;8.35;;
15970;SDS011;59785;52.582;13.892;2022-10-16T18:23:37;11.70;;;8.60;;
15970;SDS011;59785;52.582;13.892;2022-10-16T18:26:05;11.52;;;8.93;;
15970;SDS011;59785;52.582;13.892;2022-10-16T18:28:33;12.88;;;8.90;;
15970;SDS011;59785;52.582;13.892;2022-10-16T18:31:00;12.65;;;9.13;;
15970;SDS011;59785;52.582;13.892;2022-10-16T18:33:29;16.17;;;9.25;;
15970;SDS011;59785;52.582;13.892;2022-10-16T18:35:59;17.42;;;11.40;;
15970;SDS011;59785;52.582;13.892;2022-10-16T18:38:26;16.45;;;11.60;;
15970;SDS011;59785;52.582;13.892;2022-10-16T18:40:54;17.65;;;11.57;;
15970;SDS011;59785;52.582;13.892;2022-10-16T18:43:21;19.10;;;13.85;;
15970;SDS011;59785;52.582;13.892;2022-10-16T18:45:57;14.52;;;10.93;;
15970;SDS011;59785;52.582;13.892;2022-10-16T18:48:25;14.32;;;10.93;;
15970;SDS011;59785;52.582;13.892;2022-10-16T18:50:52;22.75;;;17.25;;
15970;SDS011;59785;52.582;13.892;2022-10-16T18:53:18;17.38;;;13.50;;
15970;SDS011;59785;52.582;13.892;2022-10-16T18:55:51;18.95;;;12.40;;
15970;SDS011;59785;52.582;13.892;2022-10-16T18:58:18;10.60;;;8.70;;
15970;SDS011;59785;52.582;13.892;2022-10-16T19:00:44;11.32;;;8.85;;
15970;SDS011;59785;52.582;13.892;2022-10-16T19:03:11;13.50;;;9.85;;
15970;SDS011;59785;52.582;13.892;2022-10-16T19:05:37;12.05;;;9.00;;
15970;SDS011;59785;52.582;13.892;2022-10-16T19:08:03;10.18;;;8.23;;
15970;SDS011;59785;52.582;13.892;2022-10-16T19:10:29;13.25;;;8.07;;
15970;SDS011;59785;52.582;13.892;2022-10-16T19:12:55;14.88;;;8.07;;
15970;SDS011;59785;52.582;13.892;2022-10-16T19:15:21;9.98;;;7.85;;
15970;SDS011;59785;52.582;13.892;2022-10-16T19:17:48;14.00;;;8.88;;
15970;SDS011;59785;52.582;13.892;2022-10-16T19:20:14;13.00;;;8.63;;
15970;SDS011;59785;52.582;13.892;2022-10-16T19:22:40;13.98;;;8.75;;
15970;SDS011;59785;52.582;13.892;2022-10-16T19:25:23;15.35;;;9.75;;
15970;SDS011;59785;52.582;13.892;2022-10-16T19:27:52;13.77;;;9.65;;
15970;SDS011;59785;52.582;13.892;2022-10-16T19:30:19;13.75;;;8.95;;
15970;SDS011;59785;52.582;13.892;2022-10-16T19:32:46;13.38;;;9.45;;
15970;SDS011;59785;52.582;13.892;2022-10-16T19:35:14;11.07;;;8.95;;
15970;SDS011;59785;52.582;13.892;2022-10-16T19:37:41;10.32;;;8.50;;
15970;SDS011;59785;52.582;13.892;2022-10-16T19:40:07;11.43;;;8.48;;
15970;SDS011;59785;52.582;13.892;2022-10-16T19:42:34;10.57;;;8.45;;
15970;SDS011;59785;52.582;13.892;2022-10-16T19:45:01;12.48;;;8.65;;
15970;SDS011;59785;52.582;13.892;2022-10-16T19:47:27;12.15;;;8.98;;
15970;SDS011;59785;52.582;13.892;2022-10-16T19:49:53;13.45;;;8.80;;
15970;SDS011;59785;52.582;13.892;2022-10-16T19:52:19;12.38;;;7.57;;
15970;SDS011;59785;52.582;13.892;2022-10-16T19:54:47;15.07;;;8.70;;
15970;SDS011;59785;52.582;13.892;2022-10-16T19:57:13;14.40;;;8.30;;
15970;SDS011;59785;52.582;13.892;2022-10-16T19:59:39;13.65;;;8.77;;
15970;SDS011;59785;52.582;13.892;2022-10-16T20:02:10;15.25;;;8.00;;
15970;SDS011;59785;52.582;13.892;2022-10-16T20:04:36;10.82;;;7.03;;
15970;SDS011;59785;52.582;13.892;2022-10-16T20:07:03;13.05;;;6.85;;
15970;SDS011;59785;52.582;13.892;2022-10-16T20:09:29;9.25;;;6.85;;
15970;SDS011;59785;52.582;13.892;2022-10-16T20:11:57;11.05;;;6.85;;
15970;SDS011;59785;52.582;13.892;2022-10-16T20:14:23;9.77;;;6.72;;
15970;SDS011;59785;52.582;13.892;2022-10-16T20:16:49;13.73;;;7.15;;
15970;SDS011;59785;52.582;13.892;2022-10-16T20:19:15;12.63;;;7.30;;
15970;SDS011;59785;52.582;13.892;2022-10-16T20:21:41;8.85;;;6.95;;
15970;SDS011;59785;52.582;13.892;2022-10-16T20:24:07;8.77;;;7.07;;
15970;SDS011;59785;52.582;13.892;2022-10-16T20:26:34;8.27;;;6.88;;
15970;SDS011;59785;52.582;13.892;2022-10-16T20:29:01;9.98;;;6.80;;
15970;SDS011;59785;52.582;13.892;2022-10-16T20:31:29;12.15;;;6.95;;
15970;SDS011;59785;52.582;13.892;2022-10-16T20:33:57;10.15;;;6.60;;
15970;SDS011;59785;52.582;13.892;2022-10-16T20:36:27;10.25;;;6.65;;
15970;SDS011;59785;52.582;13.892;2022-10-16T20:38:55;8.52;;;7.15;;
15970;SDS011;59785;52.582;13.892;2022-10-16T20:41:22;8.07;;;6.18;;
15970;SDS011;59785;52.582;13.892;2022-10-16T20:43:48;9.63;;;6.70;;
15970;SDS011;59785;52.582;13.892;2022-10-16T20:46:18;10.63;;;7.03;;
15970;SDS011;59785;52.582;13.892;2022-10-16T20:48:46;9.23;;;7.22;;
15970;SDS011;59785;52.582;13.892;2022-10-16T20:51:13;9.80;;;7.40;;
15970;SDS011;59785;52.582;13.892;2022-10-16T20:53:39;8.40;;;6.70;;
15970;SDS011;59785;52.582;13.892;2022-10-16T20:56:06;9.95;;;6.70;;
15970;SDS011;59785;52.582;13.892;2022-10-16T20:58:34;8.88;;;6.50;;
15970;SDS011;59785;52.582;13.892;2022-10-16T21:01:05;11.90;;;6.35;;
15970;SDS011;59785;52.582;13.892;2022-10-16T21:03:36;10.23;;;6.10;;
15970;SDS011;59785;52.582;13.892;2022-10-16T21:06:03;10.73;;;7.18;;
15970;SDS011;59785;52.582;13.892;2022-10-16T21:08:33;11.88;;;6.88;;
15970;SDS011;59785;52.582;13.892;2022-10-16T21:11:19;11.13;;;7.05;;
15970;SDS011;59785;52.582;13.892;2022-10-16T21:13:47;9.32;;;7.05;;
15970;SDS011;59785;52.582;13.892;2022-10-16T21:16:15;8.82;;;6.97;;
15970;SDS011;59785;52.582;13.892;2022-10-16T21:18:41;8.82;;;6.60;;
15970;SDS011;59785;52.582;13.892;2022-10-16T21:21:10;9.95;;;8.00;;
15970;SDS011;59785;52.582;13.892;2022-10-16T21:23:43;12.25;;;7.88;;
15970;SDS011;59785;52.582;13.892;2022-10-16T21:26:09;9.68;;;7.63;;
15970;SDS011;59785;52.582;13.892;2022-10-16T21:28:35;10.13;;;7.18;;
15970;SDS011;59785;52.582;13.892;2022-10-16T21:31:15;10.05;;;7.05;;
15970;SDS011;59785;52.582;13.892;2022-10-16T21:33:49;11.68;;;8.13;;
15970;SDS011;59785;52.582;13.892;2022-10-16T21:36:17;11.02;;;7.53;;
15970;SDS011;59785;52.582;13.892;2022-10-16T21:38:54;10.18;;;6.72;;
15970;SDS011;59785;52.582;13.892;2022-10-16T21:41:23;13.95;;;7.68;;
15970;SDS011;59785;52.582;13.892;2022-10-16T21:43:51;9.55;;;7.22;;
15970;SDS011;59785;52.582;13.892;2022-10-16T21:46:19;7.75;;;6.95;;
15970;SDS011;59785;52.582;13.892;2022-10-16T21:48:46;9.68;;;6.95;;
15970;SDS011;59785;52.582;13.892;2022-10-16T21:51:12;12.93;;;7.18;;
15970;SDS011;59785;52.582;13.892;2022-10-16T21:53:39;7.28;;;6.50;;
15970;SDS011;59785;52.582;13.892;2022-10-16T21:56:12;8.63;;;7.35;;
15970;SDS011;59785;52.582;13.892;2022-10-16T21:58:39;12.50;;;6.43;;
15970;SDS011;59785;52.582;13.892;2022-10-16T22:01:06;8.40;;;6.28;;
15970;SDS011;59785;52.582;13.892;2022-10-16T22:03:38;9.45;;;6.55;;
15970;SDS011;59785;52.582;13.892;2022-10-16T22:06:05;10.05;;;6.72;;
15970;SDS011;59785;52.582;13.892;2022-10-16T22:08:33;12.20;;;7.78;;
15970;SDS011;59785;52.582;13.892;2022-10-16T22:11:19;9.45;;;7.13;;
15970;SDS011;59785;52.582;13.892;2022-10-16T22:13:51;9.93;;;6.43;;
15970;SDS011;59785;52.582;13.892;2022-10-16T22:16:20;10.38;;;6.20;;
15970;SDS011;59785;52.582;13.892;2022-10-16T22:18:50;9.20;;;6.18;;
15970;SDS011;59785;52.582;13.892;2022-10-16T22:21:17;9.15;;;6.20;;
15970;SDS011;59785;52.582;13.892;2022-10-16T22:23:43;10.63;;;5.85;;
15970;SDS011;59785;52.582;13.892;2022-10-16T22:26:11;8.48;;;6.15;;
15970;SDS011;59785;52.582;13.892;2022-10-16T22:28:37;9.05;;;6.80;;
15970;SDS011;59785;52.582;13.892;2022-10-16T22:31:05;7.70;;;5.50;;
15970;SDS011;59785;52.582;13.892;2022-10-16T22:33:33;8.43;;;5.88;;
15970;SDS011;59785;52.582;13.892;2022-10-16T22:36:00;10.82;;;6.32;;
15970;SDS011;59785;52.582;13.892;2022-10-16T22:38:28;9.55;;;5.82;;
15970;SDS011;59785;52.582;13.892;2022-10-16T22:40:54;7.53;;;6.07;;
15970;SDS011;59785;52.582;13.892;2022-10-16T22:43:21;13.70;;;5.72;;
15970;SDS011;59785;52.582;13.892;2022-10-16T22:45:47;8.65;;;5.40;;
15970;SDS011;59785;52.582;13.892;2022-10-16T22:48:13;7.05;;;5.13;;
15970;SDS011;59785;52.582;13.892;2022-10-16T22:50:39;8.73;;;5.38;;
15970;SDS011;59785;52.582;13.892;2022-10-16T22:53:05;7.13;;;5.47;;
15970;SDS011;59785;52.582;13.892;2022-10-16T22:55:31;9.07;;;5.47;;
15970;SDS011;59785;52.582;13.892;2022-10-16T22:57:57;14.00;;;6.20;;
15970;SDS011;59785;52.582;13.892;2022-10-16T23:00:24;6.97;;;5.22;;
15970;SDS011;59785;52.582;13.892;2022-10-16T23:02:50;8.35;;;5.47;;
15970;SDS011;59785;52.582;13.892;2022-10-16T23:05:16;6.90;;;5.80;;
15970;SDS011;59785;52.582;13.892;2022-10-16T23:07:43;7.57;;;5.85;;
15970;SDS011;59785;52.582;13.892;2022-10-16T23:10:11;8.18;;;4.93;;
15970;SDS011;59785;52.582;13.892;2022-10-16T23:12:37;7.43;;;5.25;;
15970;SDS011;59785;52.582;13.892;2022-10-16T23:15:03;10.63;;;5.63;;
15970;SDS011;59785;52.582;13.892;2022-10-16T23:17:29;7.95;;;5.00;;
15970;SDS011;59785;52.582;13.892;2022-10-16T23:19:56;7.28;;;5.43;;
15970;SDS011;59785;52.582;13.892;2022-10-16T23:22:22;10.20;;;5.40;;
15970;SDS011;59785;52.582;13.892;2022-10-16T23:24:48;6.80;;;5.82;;
15970;SDS011;59785;52.582;13.892;2022-10-16T23:27:14;6.40;;;5.50;;
15970;SDS011;59785;52.582;13.892;2022-10-16T23:29:40;9.57;;;5.55;;
15970;SDS011;59785;52.582;13.892;2022-10-16T23:32:06;6.45;;;5.65;;
15970;SDS011;59785;52.582;13.892;2022-10-16T23:34:32;10.18;;;5.50;;
15970;SDS011;59785;52.582;13.892;2022-10-16T23:36:58;7.97;;;5.43;;
15970;SDS011;59785;52.582;13.892;2022-10-16T23:39:25;7.35;;;5.50;;
15970;SDS011;59785;52.582;13.892;2022-10-16T23:41:51;7.43;;;5.78;;
15970;SDS011;59785;52.582;13.892;2022-10-16T23:44:17;7.18;;;5.72;;
15970;SDS011;59785;52.582;13.892;2022-10-16T23:46:43;7.10;;;5.38;;
15970;SDS011;59785;52.582;13.892;2022-10-16T23:49:09;6.88;;;4.80;;
15970;SDS011;59785;52.582;13.892;2022-10-16T23:51:35;7.78;;;5.07;;
15970;SDS011;59785;52.582;13.892;2022-10-16T23:54:01;6.32;;;5.00;;
15970;SDS011;59785;52.582;13.892;2022-10-16T23:56:27;8.48;;;5.75;;
15970;SDS011;59785;52.582;13.892;2022-10-16T23:58:54;7.03;;;5.15;;
